createdAt,value
2023-05-24T00:02:16.351Z,4.05
2023-05-24T00:04:46.490Z,3.40
2023-05-24T00:07:16.736Z,3.55
2023-05-24T00:09:45.610Z,2.55
2023-05-24T00:12:14.164Z,2.60
2023-05-24T00:14:42.859Z,3.33
2023-05-24T00:17:13.010Z,2.78
2023-05-24T00:19:41.535Z,3.40
2023-05-24T00:22:12.129Z,2.92
2023-05-24T00:24:40.717Z,2.90
2023-05-24T00:27:09.756Z,3.33
2023-05-24T00:29:38.270Z,2.60
2023-05-24T00:32:07.461Z,2.38
2023-05-24T00:34:36.111Z,2.97
2023-05-24T00:37:04.679Z,3.08
2023-05-24T00:39:34.578Z,3.22
2023-05-24T00:42:03.166Z,3.05
2023-05-24T00:44:32.035Z,3.55
2023-05-24T00:47:00.912Z,2.80
2023-05-24T00:49:29.790Z,3.15
2023-05-24T00:51:58.641Z,3.50
2023-05-24T00:54:27.722Z,3.10
2023-05-24T00:56:57.946Z,3.13
2023-05-24T00:59:26.896Z,2.95
2023-05-24T01:01:56.095Z,3.03
2023-05-24T01:04:26.142Z,3.08
2023-05-24T01:07:02.788Z,3.60
2023-05-24T01:09:35.164Z,3.08
2023-05-24T01:12:13.799Z,3.00
2023-05-24T01:14:47.015Z,3.38
2023-05-24T01:17:17.705Z,3.30
2023-05-24T01:19:51.554Z,3.55
2023-05-24T01:22:26.795Z,3.03
2023-05-24T01:24:58.214Z,2.88
2023-05-24T01:27:29.086Z,3.38
2023-05-24T01:29:58.453Z,3.08
2023-05-24T01:32:27.236Z,2.95
2023-05-24T01:34:55.837Z,3.53
2023-05-24T01:37:24.528Z,3.75
2023-05-24T01:39:53.133Z,3.45
2023-05-24T01:42:25.916Z,3.00
2023-05-24T01:45:00.795Z,3.40
2023-05-24T01:47:33.764Z,3.17
2023-05-24T01:50:07.094Z,3.55
2023-05-24T01:52:36.551Z,3.28
2023-05-24T01:55:05.739Z,3.35
2023-05-24T01:57:36.359Z,3.42
2023-05-24T02:00:07.432Z,3.03
2023-05-24T02:02:36.503Z,3.70
2023-05-24T02:05:05.906Z,3.65
2023-05-24T02:07:34.380Z,3.60
2023-05-24T02:10:03.237Z,3.60
2023-05-24T02:12:32.095Z,2.83
2023-05-24T02:15:00.610Z,3.10
2023-05-24T02:17:33.092Z,3.50
2023-05-24T02:20:01.972Z,3.40
2023-05-24T02:22:30.549Z,3.58
2023-05-24T02:24:59.225Z,3.58
2023-05-24T02:27:27.753Z,3.22
2023-05-24T02:29:56.287Z,2.95
2023-05-24T02:32:24.930Z,3.50
2023-05-24T02:34:54.800Z,3.97
2023-05-24T02:37:23.370Z,3.83
2023-05-24T02:39:51.900Z,3.00
2023-05-24T02:42:20.776Z,3.63
2023-05-24T02:44:52.427Z,3.92
2023-05-24T02:47:21.237Z,3.08
2023-05-24T02:49:49.761Z,3.78
2023-05-24T02:52:21.966Z,3.05
2023-05-24T02:54:50.722Z,3.45
2023-05-24T02:57:19.412Z,3.05
2023-05-24T02:59:48.305Z,3.83
2023-05-24T03:02:18.116Z,3.33
2023-05-24T03:04:46.714Z,3.45
2023-05-24T03:07:15.349Z,3.22
2023-05-24T03:09:45.623Z,3.42
2023-05-24T03:12:14.234Z,3.88
2023-05-24T03:14:42.830Z,4.50
2023-05-24T03:17:11.511Z,3.75
2023-05-24T03:19:40.081Z,4.10
2023-05-24T03:22:08.650Z,4.32
2023-05-24T03:24:38.637Z,4.22
2023-05-24T03:27:09.040Z,4.38
2023-05-24T03:29:37.908Z,4.25
2023-05-24T03:32:06.812Z,4.47
2023-05-24T03:34:35.463Z,4.43
2023-05-24T03:37:03.998Z,4.50
2023-05-24T03:39:32.610Z,4.65
2023-05-24T03:42:01.282Z,5.43
2023-05-24T03:44:31.346Z,3.95
2023-05-24T03:46:59.868Z,4.00
2023-05-24T03:49:28.542Z,4.50
2023-05-24T03:51:57.081Z,4.30
2023-05-24T03:54:25.596Z,4.13
2023-05-24T03:56:54.657Z,3.80
2023-05-24T03:59:23.602Z,4.13
2023-05-24T04:01:53.590Z,4.80
2023-05-24T04:04:22.242Z,5.32
2023-05-24T04:06:51.121Z,4.72
2023-05-24T04:09:19.780Z,4.05
2023-05-24T04:11:48.344Z,4.28
2023-05-24T04:14:16.917Z,4.72
2023-05-24T04:16:46.115Z,4.90
2023-05-24T04:19:16.310Z,4.38
2023-05-24T04:21:44.893Z,3.97
2023-05-24T04:24:13.474Z,3.95
2023-05-24T04:26:41.925Z,4.85
2023-05-24T04:29:10.515Z,4.40
2023-05-24T04:31:40.086Z,4.32
2023-05-24T04:34:10.130Z,4.18
2023-05-24T04:36:41.526Z,4.60
2023-05-24T04:39:10.156Z,4.80
2023-05-24T04:41:38.836Z,4.50
2023-05-24T04:44:07.643Z,4.55
2023-05-24T04:46:37.362Z,4.18
2023-05-24T04:49:08.473Z,4.57
2023-05-24T04:51:38.913Z,3.95
2023-05-24T04:54:09.879Z,4.05
2023-05-24T04:56:39.334Z,4.95
2023-05-24T04:59:08.000Z,4.47
2023-05-24T05:01:36.795Z,4.72
2023-05-24T05:04:05.869Z,5.15
2023-05-24T05:06:38.640Z,4.50
2023-05-24T05:09:09.522Z,4.75
2023-05-24T05:11:39.573Z,4.40
2023-05-24T05:14:09.753Z,5.32
2023-05-24T05:16:38.647Z,5.57
2023-05-24T05:19:07.501Z,4.82
2023-05-24T05:21:36.674Z,5.32
2023-05-24T05:24:05.456Z,5.72
2023-05-24T05:26:34.700Z,4.80
2023-05-24T05:29:04.770Z,5.53
2023-05-24T05:31:33.302Z,5.28
2023-05-24T05:34:01.979Z,5.45
2023-05-24T05:36:30.726Z,5.63
2023-05-24T05:38:59.290Z,6.22
2023-05-24T05:41:27.803Z,6.40
2023-05-24T05:43:56.562Z,6.88
2023-05-24T05:46:27.114Z,5.38
2023-05-24T05:48:55.740Z,6.10
2023-05-24T05:51:24.617Z,5.70
2023-05-24T05:53:53.262Z,5.63
2023-05-24T05:56:21.894Z,5.68
2023-05-24T05:58:50.552Z,6.20
2023-05-24T06:01:19.429Z,5.75
2023-05-24T06:03:49.665Z,6.15
2023-05-24T06:06:18.715Z,5.35
2023-05-24T06:08:47.310Z,6.20
2023-05-24T06:11:16.375Z,6.40
2023-05-24T06:13:45.021Z,5.82
2023-05-24T06:16:14.601Z,6.65
2023-05-24T06:18:53.414Z,6.45
2023-05-24T06:21:32.271Z,6.68
2023-05-24T06:24:00.835Z,6.68
2023-05-24T06:26:29.873Z,6.18
2023-05-24T06:28:58.405Z,7.70
2023-05-24T06:31:27.012Z,6.55
2023-05-24T06:34:03.884Z,6.65
2023-05-24T06:36:36.184Z,7.40
2023-05-24T06:39:05.590Z,6.88
2023-05-24T06:41:34.217Z,6.53
2023-05-24T06:44:02.928Z,6.03
2023-05-24T06:46:31.647Z,5.85
2023-05-24T06:49:00.523Z,5.40
2023-05-24T06:51:29.401Z,6.13
2023-05-24T06:54:00.024Z,5.88
2023-05-24T06:56:29.199Z,5.25
2023-05-24T06:58:58.160Z,4.80
2023-05-24T07:01:27.675Z,4.60
2023-05-24T07:03:56.314Z,4.50
2023-05-24T07:06:25.243Z,4.90
2023-05-24T07:08:53.852Z,5.00
2023-05-24T07:11:23.801Z,4.50
2023-05-24T07:13:52.526Z,4.35
2023-05-24T07:16:21.172Z,3.90
2023-05-24T07:18:49.695Z,4.65
2023-05-24T07:21:18.363Z,5.38
2023-05-24T07:23:47.366Z,4.97
2023-05-24T07:26:16.101Z,5.22
2023-05-24T07:28:46.295Z,5.10
2023-05-24T07:31:14.887Z,4.28
2023-05-24T07:33:43.594Z,4.13
2023-05-24T07:36:12.341Z,4.40
2023-05-24T07:38:41.304Z,4.45
2023-05-24T07:41:10.133Z,4.15
2023-05-24T07:43:39.021Z,4.53
2023-05-24T07:46:10.776Z,4.88
2023-05-24T07:48:39.473Z,3.95
2023-05-24T07:51:08.138Z,5.07
2023-05-24T07:53:37.855Z,3.80
2023-05-24T07:56:08.107Z,5.13
2023-05-24T07:58:36.779Z,5.88
2023-05-24T08:01:05.849Z,6.72
2023-05-24T08:03:36.922Z,8.25
2023-05-24T08:06:05.895Z,6.10
2023-05-24T08:08:34.766Z,5.55
2023-05-24T08:11:03.441Z,4.82
2023-05-24T08:13:32.099Z,4.82
2023-05-24T08:16:00.803Z,4.80
2023-05-24T08:18:29.550Z,4.93
2023-05-24T08:20:59.588Z,4.10
2023-05-24T08:23:29.962Z,3.63
2023-05-24T08:25:58.910Z,4.15
2023-05-24T08:28:28.316Z,3.65
2023-05-24T08:30:57.412Z,4.53
2023-05-24T08:33:26.032Z,3.72
2023-05-24T08:35:54.888Z,4.03
2023-05-24T08:38:25.128Z,3.45
2023-05-24T08:40:54.020Z,4.05
2023-05-24T08:43:23.372Z,3.60
2023-05-24T08:45:52.524Z,3.70
2023-05-24T08:48:21.896Z,3.60
2023-05-24T08:50:50.587Z,4.03
2023-05-24T08:53:20.564Z,3.85
2023-05-24T08:55:53.305Z,3.72
2023-05-24T08:58:21.918Z,3.72
2023-05-24T09:00:50.687Z,3.50
2023-05-24T09:03:21.627Z,4.18
2023-05-24T09:05:51.041Z,4.63
2023-05-24T09:08:20.743Z,4.47
2023-05-24T09:10:55.264Z,5.55
2023-05-24T09:13:25.835Z,5.20
2023-05-24T09:15:54.925Z,5.00
2023-05-24T09:18:23.623Z,4.88
2023-05-24T09:20:52.277Z,4.72
2023-05-24T09:23:21.162Z,5.57
2023-05-24T09:25:51.103Z,5.43
2023-05-24T09:28:21.074Z,5.63
2023-05-24T09:31:00.180Z,6.10
2023-05-24T09:33:31.039Z,5.35
2023-05-24T09:36:00.191Z,4.43
2023-05-24T09:38:29.788Z,3.80
2023-05-24T09:41:03.536Z,3.85
2023-05-24T09:43:32.898Z,4.50
2023-05-24T09:46:01.822Z,4.03
2023-05-24T09:48:30.774Z,4.65
2023-05-24T09:51:01.871Z,3.58
2023-05-24T09:53:30.526Z,3.92
2023-05-24T09:55:59.701Z,3.30
2023-05-24T09:58:33.613Z,4.03
2023-05-24T10:01:06.673Z,3.63
2023-05-24T10:03:35.418Z,3.42
2023-05-24T10:06:07.539Z,3.47
2023-05-24T10:08:36.769Z,3.60
2023-05-24T10:11:05.858Z,3.67
2023-05-24T10:13:36.788Z,4.15
2023-05-24T10:16:05.828Z,4.68
2023-05-24T10:18:34.530Z,4.97
2023-05-24T10:21:03.962Z,4.47
2023-05-24T10:23:33.540Z,3.55
2023-05-24T10:26:06.765Z,4.18
2023-05-24T10:28:38.069Z,3.55
2023-05-24T10:31:09.968Z,3.53
2023-05-24T10:33:39.275Z,3.60
2023-05-24T10:36:10.130Z,3.58
2023-05-24T10:38:40.933Z,4.00
2023-05-24T10:41:09.731Z,3.20
2023-05-24T10:43:40.142Z,3.63
2023-05-24T10:46:11.389Z,3.67
2023-05-24T10:48:43.212Z,3.10
2023-05-24T10:51:33.048Z,3.70
2023-05-24T10:54:13.174Z,3.58
2023-05-24T10:56:43.261Z,3.50
2023-05-24T10:59:23.950Z,3.50
2023-05-24T11:01:59.438Z,3.50
2023-05-24T11:04:29.683Z,3.58
2023-05-24T11:07:00.566Z,3.58
2023-05-24T11:09:30.069Z,4.18
2023-05-24T11:11:59.506Z,3.60
2023-05-24T11:14:31.256Z,3.72
2023-05-24T11:17:02.282Z,3.88
2023-05-24T11:19:35.904Z,3.35
2023-05-24T11:22:05.462Z,3.30
2023-05-24T11:24:34.677Z,4.35
2023-05-24T11:27:04.000Z,3.75
2023-05-24T11:29:35.985Z,3.58
2023-05-24T11:32:06.788Z,3.95
2023-05-24T11:34:35.861Z,3.38
2023-05-24T11:37:06.138Z,3.40
2023-05-24T11:39:35.667Z,3.55
2023-05-24T11:42:07.432Z,3.50
2023-05-24T11:44:39.259Z,3.05
2023-05-24T11:47:08.971Z,3.28
2023-05-24T11:49:37.625Z,3.35
2023-05-24T11:52:06.774Z,3.67
2023-05-24T11:54:37.414Z,3.05
2023-05-24T11:57:07.185Z,3.40
2023-05-24T11:59:38.240Z,3.92
2023-05-24T12:02:08.060Z,3.75
2023-05-24T12:04:37.213Z,3.95
2023-05-24T12:07:06.716Z,4.13
2023-05-24T12:09:35.384Z,3.70
2023-05-24T12:12:03.897Z,4.30
2023-05-24T12:14:33.302Z,3.33
2023-05-24T12:17:03.699Z,3.90
2023-05-24T12:19:35.868Z,4.00
2023-05-24T12:22:07.276Z,4.18
2023-05-24T12:24:36.846Z,4.03
2023-05-24T12:27:07.832Z,4.22
2023-05-24T12:29:38.760Z,4.00
2023-05-24T12:32:13.525Z,4.07
2023-05-24T12:34:43.728Z,3.55
2023-05-24T12:37:13.762Z,4.13
2023-05-24T12:39:45.004Z,3.65
2023-05-24T12:42:14.399Z,3.28
2023-05-24T12:44:45.106Z,3.70
2023-05-24T12:47:15.270Z,3.70
2023-05-24T12:49:44.673Z,3.88
2023-05-24T12:52:13.584Z,3.38
2023-05-24T12:54:42.119Z,3.45
2023-05-24T12:57:12.055Z,3.40
2023-05-24T12:59:40.701Z,3.88
2023-05-24T13:02:09.451Z,3.50
2023-05-24T13:04:39.547Z,4.18
2023-05-24T13:07:08.467Z,4.38
2023-05-24T13:09:37.395Z,4.03
2023-05-24T13:12:06.422Z,3.83
2023-05-24T13:14:35.120Z,4.10
2023-05-24T13:17:03.808Z,3.55
2023-05-24T13:19:32.401Z,4.13
2023-05-24T13:22:02.311Z,4.25
2023-05-24T13:24:31.088Z,4.20
2023-05-24T13:26:59.582Z,3.63
2023-05-24T13:29:39.324Z,3.65
2023-05-24T13:32:14.580Z,4.13
2023-05-24T13:34:43.393Z,3.97
2023-05-24T13:37:13.604Z,4.05
2023-05-24T13:39:42.135Z,3.38
2023-05-24T13:42:11.059Z,3.75
2023-05-24T13:44:39.834Z,3.97
2023-05-24T13:47:08.795Z,4.30
2023-05-24T13:49:37.928Z,3.40
2023-05-24T13:52:06.890Z,3.65
2023-05-24T13:54:36.893Z,3.90
2023-05-24T13:57:06.839Z,3.53
2023-05-24T13:59:35.676Z,3.40
2023-05-24T14:02:04.241Z,3.33
2023-05-24T14:04:33.202Z,4.47
2023-05-24T14:07:01.771Z,3.92
2023-05-24T14:09:30.325Z,3.40
2023-05-24T14:12:02.314Z,3.70
2023-05-24T14:17:02.480Z,3.85
2023-05-24T14:19:31.324Z,3.60
2023-05-24T14:21:59.893Z,3.65
2023-05-24T14:24:28.576Z,4.28
2023-05-24T14:26:57.366Z,4.45
2023-05-24T14:29:27.320Z,4.10
2023-05-24T14:31:56.119Z,4.10
2023-05-24T14:34:24.677Z,3.40
2023-05-24T14:36:53.330Z,3.65
2023-05-24T14:39:21.927Z,4.13
2023-05-24T14:41:50.453Z,4.55
2023-05-24T14:44:19.210Z,4.15
2023-05-24T14:46:49.695Z,3.92
2023-05-24T14:49:18.826Z,3.78
2023-05-24T14:51:49.644Z,3.45
2023-05-24T14:54:18.217Z,3.97
2023-05-24T14:56:46.987Z,4.07
2023-05-24T14:59:16.145Z,3.53
2023-05-24T15:01:45.029Z,3.75
2023-05-24T15:04:15.177Z,4.03
2023-05-24T15:06:43.722Z,3.85
2023-05-24T15:09:12.360Z,3.08
2023-05-24T15:11:41.066Z,4.20
2023-05-24T15:14:09.929Z,3.60
2023-05-24T15:16:38.569Z,3.70
2023-05-24T15:19:07.205Z,3.80
2023-05-24T15:21:38.246Z,4.15
2023-05-24T15:24:07.143Z,4.72
2023-05-24T15:26:35.753Z,3.97
2023-05-24T15:29:04.776Z,4.10
2023-05-24T15:31:33.392Z,3.97
2023-05-24T15:34:02.120Z,3.65
2023-05-24T15:36:30.732Z,4.15
2023-05-24T15:39:01.096Z,3.88
2023-05-24T15:41:29.656Z,4.30
2023-05-24T15:43:58.380Z,4.47
2023-05-24T15:46:27.066Z,4.15
2023-05-24T15:48:56.264Z,4.15
2023-05-24T15:52:01.642Z,4.50
2023-05-24T15:54:15.540Z,4.15
2023-05-24T15:56:45.977Z,4.95
2023-05-24T15:59:15.973Z,4.25
2023-05-24T16:01:44.814Z,4.47
2023-05-24T16:04:15.385Z,3.83
2023-05-24T16:06:44.281Z,5.05
2023-05-24T16:09:13.272Z,4.97
2023-05-24T16:11:43.523Z,4.60
2023-05-24T16:14:12.216Z,4.30
2023-05-24T16:16:42.185Z,4.50
2023-05-24T16:19:10.966Z,4.47
2023-05-24T16:21:39.745Z,4.40
2023-05-24T16:24:09.208Z,5.03
2023-05-24T16:26:38.198Z,3.95
2023-05-24T16:29:10.516Z,4.57
2023-05-24T16:31:39.613Z,4.85
2023-05-24T16:34:08.379Z,4.40
2023-05-24T16:36:37.256Z,3.67
2023-05-24T16:39:06.116Z,4.63
2023-05-24T16:41:37.805Z,3.53
2023-05-24T16:44:08.598Z,4.45
2023-05-24T16:46:37.879Z,4.10
2023-05-24T16:49:06.705Z,5.03
2023-05-24T16:51:35.630Z,4.00
2023-05-24T16:54:04.473Z,4.65
2023-05-24T16:56:36.430Z,4.07
2023-05-24T16:59:05.800Z,4.80
2023-05-24T17:01:37.499Z,4.07
2023-05-24T17:04:06.875Z,4.32
2023-05-24T17:06:36.661Z,4.18
2023-05-24T17:09:06.705Z,4.53
2023-05-24T17:11:35.302Z,4.00
2023-05-24T17:14:04.603Z,4.00
2023-05-24T17:16:33.590Z,3.60
2023-05-24T17:19:03.837Z,4.63
2023-05-24T17:21:32.734Z,4.47
2023-05-24T17:24:01.756Z,3.83
2023-05-24T17:26:31.006Z,4.30
2023-05-24T17:29:03.583Z,3.92
2023-05-24T17:31:32.938Z,3.95
2023-05-24T17:34:02.992Z,4.32
2023-05-24T17:36:33.899Z,4.05
2023-05-24T17:39:02.507Z,5.15
2023-05-24T17:41:31.192Z,4.00
2023-05-24T17:43:59.892Z,4.63
2023-05-24T17:46:29.002Z,3.58
2023-05-24T17:48:58.198Z,4.20
2023-05-24T17:51:28.546Z,4.30
2023-05-24T17:53:57.091Z,4.25
2023-05-24T17:56:25.963Z,3.97
2023-05-24T17:58:54.499Z,4.35
2023-05-24T18:01:23.741Z,3.83
2023-05-24T18:03:52.644Z,4.20
2023-05-24T18:06:21.320Z,4.07
2023-05-24T18:08:51.297Z,3.60
2023-05-24T18:11:19.789Z,4.53
2023-05-24T18:13:48.560Z,3.72
2023-05-24T18:16:17.128Z,4.00
2023-05-24T18:18:45.766Z,4.22
2023-05-24T18:21:14.267Z,3.83
2023-05-24T18:23:44.014Z,4.28
2023-05-24T18:26:14.130Z,4.38
2023-05-24T18:28:42.838Z,3.42
2023-05-24T18:31:11.741Z,4.25
2023-05-24T18:33:40.491Z,4.07
2023-05-24T18:36:09.288Z,4.07
2023-05-24T18:38:40.218Z,4.30
2023-05-24T18:41:12.051Z,4.68
2023-05-24T18:43:43.557Z,3.60
2023-05-24T18:46:14.882Z,4.07
2023-05-24T18:48:47.598Z,3.75
2023-05-24T18:51:16.193Z,4.40
2023-05-24T18:53:44.661Z,4.05
2023-05-24T18:56:13.552Z,3.95
2023-05-24T18:58:46.222Z,4.50
2023-05-24T19:01:14.887Z,4.80
2023-05-24T19:03:43.534Z,3.88
2023-05-24T19:06:14.836Z,4.43
2023-05-24T19:08:43.419Z,3.92
2023-05-24T19:11:11.998Z,4.40
2023-05-24T19:13:41.232Z,4.10
2023-05-24T19:16:17.345Z,3.70
2023-05-24T19:18:46.336Z,4.35
2023-05-24T19:21:15.007Z,4.70
2023-05-24T19:23:43.992Z,4.72
2023-05-24T19:26:12.682Z,4.15
2023-05-24T19:28:50.630Z,3.78
2023-05-24T19:31:20.757Z,4.40
2023-05-24T19:33:59.909Z,4.35
2023-05-24T19:36:28.794Z,4.10
2023-05-24T19:38:59.400Z,3.88
2023-05-24T19:41:28.247Z,3.88
2023-05-24T19:43:58.619Z,3.97
2023-05-24T19:46:28.957Z,5.18
2023-05-24T19:48:57.700Z,4.43
2023-05-24T19:51:26.273Z,4.70
2023-05-24T19:53:55.005Z,4.35
2023-05-24T19:56:24.005Z,4.80
2023-05-24T19:58:52.767Z,4.75
2023-05-24T20:01:21.721Z,4.10
2023-05-24T20:03:52.243Z,4.38
2023-05-24T20:06:21.054Z,3.42
2023-05-24T20:08:49.754Z,4.22
2023-05-24T20:11:19.152Z,4.25
2023-05-24T20:13:47.816Z,4.50
2023-05-24T20:16:16.622Z,5.00
2023-05-24T20:18:45.138Z,5.18
2023-05-24T20:21:15.167Z,4.35
2023-05-24T20:23:44.160Z,4.93
2023-05-24T20:26:13.065Z,4.05
2023-05-24T20:28:41.633Z,5.13
2023-05-24T20:31:10.356Z,4.28
2023-05-24T20:33:41.433Z,4.40
2023-05-24T20:36:10.741Z,4.55
2023-05-24T20:38:40.795Z,4.22
2023-05-24T20:41:09.972Z,4.70
2023-05-24T20:43:38.545Z,4.10
2023-05-24T20:46:07.802Z,4.35
2023-05-24T20:48:37.434Z,4.40
2023-05-24T20:51:06.485Z,4.13
2023-05-24T20:53:35.117Z,4.75
2023-05-24T20:56:05.048Z,5.13
2023-05-24T20:58:33.920Z,4.40
2023-05-24T21:01:04.168Z,4.60
2023-05-24T21:03:33.837Z,4.45
2023-05-24T21:06:02.578Z,4.70
2023-05-24T21:08:31.656Z,4.82
2023-05-24T21:11:00.697Z,5.25
2023-05-24T21:13:31.943Z,5.03
2023-05-24T21:16:01.947Z,4.68
2023-05-24T21:18:32.085Z,4.95
2023-05-24T21:21:00.946Z,4.63
2023-05-24T21:23:29.639Z,4.95
2023-05-24T21:25:58.211Z,5.38
2023-05-24T21:28:27.184Z,4.75
2023-05-24T21:30:57.407Z,5.82
2023-05-24T21:33:26.207Z,4.22
2023-05-24T21:35:55.286Z,5.57
2023-05-24T21:38:23.973Z,5.97
2023-05-24T21:40:52.643Z,5.32
2023-05-24T21:43:21.268Z,4.75
2023-05-24T21:45:49.900Z,4.88
2023-05-24T21:48:19.903Z,5.03
2023-05-24T21:50:48.525Z,5.07
2023-05-24T21:53:17.337Z,4.55
2023-05-24T21:55:46.299Z,5.32
2023-05-24T21:58:15.497Z,5.25
2023-05-24T22:00:44.250Z,4.85
2023-05-24T22:03:12.979Z,5.32
2023-05-24T22:05:43.231Z,5.45
2023-05-24T22:08:12.522Z,4.95
2023-05-24T22:10:41.027Z,5.15
2023-05-24T22:13:09.548Z,5.22
2023-05-24T22:15:38.212Z,5.65
2023-05-24T22:18:06.808Z,4.68
2023-05-24T22:20:36.930Z,4.70
2023-05-24T22:23:07.752Z,5.43
2023-05-24T22:25:36.254Z,5.15
2023-05-24T22:28:04.981Z,5.60
2023-05-24T22:30:35.328Z,5.70
2023-05-24T22:33:04.227Z,5.68
2023-05-24T22:35:33.514Z,5.18
2023-05-24T22:38:02.073Z,5.57
2023-05-24T22:40:32.024Z,5.53
2023-05-24T22:43:00.580Z,5.18
2023-05-24T22:45:29.222Z,5.70
2023-05-24T22:47:58.482Z,5.53
2023-05-24T22:50:27.302Z,6.63
2023-05-24T22:52:56.804Z,5.32
2023-05-24T22:55:25.643Z,5.55
2023-05-24T22:57:55.693Z,6.65
2023-05-24T23:00:24.238Z,5.43
2023-05-24T23:02:52.777Z,6.18
2023-05-24T23:05:21.687Z,6.10
2023-05-24T23:07:50.679Z,6.13
2023-05-24T23:10:19.144Z,5.78
2023-05-24T23:12:47.698Z,5.55
2023-05-24T23:15:18.817Z,5.97
2023-05-24T23:17:48.240Z,5.47
2023-05-24T23:20:16.995Z,5.72
2023-05-24T23:22:46.837Z,6.13
2023-05-24T23:25:15.590Z,6.10
2023-05-24T23:27:44.161Z,5.53
2023-05-24T23:30:12.871Z,6.05
2023-05-24T23:32:42.848Z,5.88
2023-05-24T23:35:11.746Z,5.57
2023-05-24T23:37:40.360Z,5.90
2023-05-24T23:40:09.521Z,5.43
2023-05-24T23:42:38.007Z,5.13
2023-05-24T23:45:07.639Z,5.38
2023-05-24T23:47:36.185Z,5.78
2023-05-24T23:50:06.814Z,5.80
2023-05-24T23:52:36.065Z,6.32
2023-05-24T23:55:04.713Z,5.85
2023-05-24T23:57:33.519Z,5.50
